createdAt,value
2023-03-12T00:00:08.388Z,69.29
2023-03-12T00:03:30.050Z,69.37
2023-03-12T00:06:31.867Z,69.43
2023-03-12T00:09:38.445Z,69.44
2023-03-12T00:12:40.315Z,69.41
2023-03-12T00:15:42.005Z,69.42
2023-03-12T00:18:46.688Z,69.45
2023-03-12T00:21:48.388Z,69.49
2023-03-12T00:24:54.342Z,69.48
2023-03-12T00:27:56.064Z,69.47
2023-03-12T00:30:58.343Z,69.47
2023-03-12T00:34:01.694Z,69.44
2023-03-12T00:37:03.464Z,69.46
2023-03-12T00:40:08.061Z,69.50
2023-03-12T00:43:10.210Z,69.48
2023-03-12T00:46:12.243Z,69.48
2023-03-12T00:49:13.929Z,69.49
2023-03-12T00:52:15.714Z,69.47
2023-03-12T00:55:17.514Z,69.44
2023-03-12T00:58:19.303Z,69.46
2023-03-12T01:01:21.050Z,69.42
2023-03-12T01:04:23.017Z,69.38
2023-03-12T01:07:24.758Z,69.37
2023-03-12T01:10:26.408Z,69.32
2023-03-12T01:13:28.148Z,69.28
2023-03-12T01:16:30.062Z,69.21
2023-03-12T01:19:31.797Z,69.18
2023-03-12T01:22:34.453Z,69.14
2023-03-12T01:25:36.494Z,69.11
2023-03-12T01:28:38.212Z,69.10
2023-03-12T01:31:39.911Z,69.10
2023-03-12T01:34:41.543Z,69.00
2023-03-12T01:37:43.208Z,68.98
2023-03-12T01:40:44.999Z,68.91
2023-03-12T01:43:46.798Z,68.86
2023-03-12T01:46:48.643Z,68.82
2023-03-12T01:49:55.574Z,68.80
2023-03-12T01:52:57.201Z,68.81
2023-03-12T01:56:01.055Z,68.78
2023-03-12T01:59:13.427Z,68.83
2023-03-12T02:02:15.916Z,68.84
2023-03-12T02:05:20.875Z,68.82
2023-03-12T02:08:24.140Z,68.83
2023-03-12T02:11:25.891Z,68.83
2023-03-12T02:14:27.912Z,68.81
2023-03-12T02:17:30.656Z,68.79
2023-03-12T02:20:56.463Z,68.77
2023-03-12T02:24:29.272Z,68.78
2023-03-12T02:27:32.179Z,68.77
2023-03-12T02:30:35.698Z,68.79
2023-03-12T02:33:37.521Z,68.75
2023-03-12T02:36:39.349Z,68.68
2023-03-12T02:39:43.998Z,68.66
2023-03-12T02:42:46.046Z,68.65
2023-03-12T02:45:48.164Z,68.58
2023-03-12T02:48:50.814Z,68.54
2023-03-12T02:51:52.987Z,68.52
2023-03-12T02:54:54.646Z,68.50
2023-03-12T02:57:56.421Z,68.53
2023-03-12T03:00:58.551Z,68.50
2023-03-12T03:04:03.559Z,68.49
2023-03-12T03:07:05.401Z,68.51
2023-03-12T03:10:08.113Z,68.46
2023-03-12T03:13:09.798Z,68.40
2023-03-12T03:16:12.845Z,68.37
2023-03-12T03:19:14.933Z,68.34
2023-03-12T03:22:17.602Z,68.38
2023-03-12T03:25:21.668Z,68.39
2023-03-12T03:28:25.918Z,68.34
2023-03-12T03:31:27.789Z,68.32
2023-03-12T03:34:29.638Z,68.28
2023-03-12T03:37:31.576Z,68.25
2023-03-12T03:40:33.514Z,68.15
2023-03-12T03:43:35.475Z,68.07
2023-03-12T03:46:37.171Z,68.02
2023-03-12T03:49:41.139Z,67.93
2023-03-12T03:52:43.122Z,67.85
2023-03-12T03:55:45.608Z,67.77
2023-03-12T03:58:47.702Z,67.69
2023-03-12T04:01:49.772Z,67.65
2023-03-12T04:04:51.820Z,67.69
2023-03-12T04:07:55.291Z,67.60
2023-03-12T04:10:58.343Z,67.52
2023-03-12T04:14:00.052Z,67.34
2023-03-12T04:17:04.505Z,67.24
2023-03-12T04:20:08.752Z,67.02
2023-03-12T04:23:11.132Z,67.04
2023-03-12T04:26:13.208Z,66.88
2023-03-12T04:29:15.492Z,66.71
2023-03-12T04:32:17.960Z,66.42
2023-03-12T04:35:19.870Z,66.42
2023-03-12T04:38:23.595Z,66.42
2023-03-12T04:41:25.571Z,66.36
2023-03-12T04:44:32.094Z,66.26
2023-03-12T04:47:34.091Z,66.15
2023-03-12T04:50:35.808Z,66.00
2023-03-12T04:53:39.848Z,65.98
2023-03-12T04:56:43.418Z,65.92
2023-03-12T04:59:45.542Z,65.77
2023-03-12T05:02:47.663Z,65.73
2023-03-12T05:05:49.643Z,65.91
2023-03-12T05:08:51.737Z,65.74
2023-03-12T05:11:53.661Z,65.80
2023-03-12T05:14:56.195Z,65.62
2023-03-12T05:17:58.098Z,65.49
2023-03-12T05:21:05.272Z,65.39
2023-03-12T05:24:08.590Z,65.34
2023-03-12T05:27:10.984Z,65.18
2023-03-12T05:30:13.510Z,65.09
2023-03-12T05:33:15.491Z,64.96
2023-03-12T05:36:17.796Z,64.81
2023-03-12T05:39:19.930Z,64.67
2023-03-12T05:42:23.631Z,64.66
2023-03-12T05:45:25.779Z,64.81
2023-03-12T05:48:28.889Z,64.77
2023-03-12T05:51:30.818Z,64.68
2023-03-12T05:54:32.880Z,64.58
2023-03-12T05:57:34.678Z,64.54
2023-03-12T06:00:37.511Z,64.48
2023-03-12T06:03:39.889Z,64.09
2023-03-12T06:06:41.759Z,64.11
2023-03-12T06:09:43.513Z,64.07
2023-03-12T06:12:46.141Z,63.84
2023-03-12T06:15:48.778Z,63.71
2023-03-12T06:19:01.360Z,63.70
2023-03-12T06:22:03.628Z,63.40
2023-03-12T06:25:05.980Z,63.47
2023-03-12T06:28:07.749Z,63.39
2023-03-12T06:31:09.629Z,63.19
2023-03-12T06:34:11.438Z,63.04
2023-03-12T06:37:13.174Z,62.96
2023-03-12T06:40:15.006Z,62.80
2023-03-12T06:43:16.748Z,62.76
2023-03-12T06:46:24.875Z,62.76
2023-03-12T06:49:31.427Z,62.68
2023-03-12T06:52:34.072Z,62.63
2023-03-12T06:55:36.041Z,62.27
2023-03-12T06:58:38.140Z,62.22
2023-03-12T07:01:39.780Z,62.08
2023-03-12T07:04:41.514Z,62.29
2023-03-12T07:07:43.344Z,62.07
2023-03-12T07:10:45.901Z,61.87
2023-03-12T07:13:47.629Z,61.69
2023-03-12T07:16:50.272Z,61.63
2023-03-12T07:19:52.165Z,61.64
2023-03-12T07:22:53.960Z,61.26
2023-03-12T07:25:55.706Z,60.87
2023-03-12T07:28:57.424Z,60.71
2023-03-12T07:31:59.205Z,60.67
2023-03-12T07:35:01.015Z,60.51
2023-03-12T07:38:03.339Z,60.09
2023-03-12T07:41:05.436Z,59.92
2023-03-12T07:44:07.484Z,60.02
2023-03-12T07:47:23.218Z,60.07
2023-03-12T07:50:25.844Z,59.64
2023-03-12T07:53:27.632Z,59.40
2023-03-12T07:56:29.378Z,59.19
2023-03-12T07:59:31.114Z,59.04
2023-03-12T08:02:33.680Z,58.90
2023-03-12T08:05:35.859Z,58.62
2023-03-12T08:08:41.107Z,58.49
2023-03-12T08:11:43.028Z,58.56
2023-03-12T08:14:46.617Z,58.59
2023-03-12T08:17:49.425Z,58.56
2023-03-12T08:20:52.369Z,58.43
2023-03-12T08:23:54.169Z,58.23
2023-03-12T08:26:56.256Z,57.96
2023-03-12T08:29:58.004Z,58.01
2023-03-12T08:32:59.787Z,57.99
2023-03-12T08:36:01.658Z,58.11
2023-03-12T08:39:03.953Z,58.35
2023-03-12T08:42:07.075Z,58.24
2023-03-12T08:45:10.801Z,58.62
2023-03-12T08:48:12.541Z,58.27
2023-03-12T08:51:16.805Z,58.14
2023-03-12T08:54:20.224Z,58.07
2023-03-12T08:57:22.002Z,58.06
2023-03-12T09:00:24.453Z,58.08
2023-03-12T09:03:26.592Z,58.08
2023-03-12T09:06:32.816Z,58.24
2023-03-12T09:09:34.776Z,58.06
2023-03-12T09:12:45.561Z,58.13
2023-03-12T09:15:47.858Z,57.84
2023-03-12T09:18:49.565Z,57.43
2023-03-12T09:21:51.351Z,57.84
2023-03-12T09:24:53.069Z,57.75
2023-03-12T09:27:54.812Z,57.27
2023-03-12T09:30:56.501Z,56.92
2023-03-12T09:33:58.255Z,56.70
2023-03-12T09:37:00.238Z,56.61
2023-03-12T09:40:06.941Z,56.88
2023-03-12T09:43:46.071Z,56.70
2023-03-12T09:46:53.007Z,56.75
2023-03-12T09:50:19.941Z,56.85
2023-03-12T09:53:34.089Z,56.93
2023-03-12T09:56:37.400Z,56.58
2023-03-12T09:59:39.978Z,56.56
2023-03-12T10:03:06.581Z,56.46
2023-03-12T10:06:24.949Z,56.59
2023-03-12T10:09:39.313Z,56.65
2023-03-12T10:13:18.764Z,56.31
2023-03-12T10:16:30.150Z,56.23
2023-03-12T10:19:50.202Z,55.95
2023-03-12T10:22:58.201Z,56.34
2023-03-12T10:26:09.664Z,56.45
2023-03-12T10:29:27.625Z,56.51
2023-03-12T10:32:38.315Z,56.44
2023-03-12T10:35:43.603Z,55.99
2023-03-12T10:38:48.829Z,55.18
2023-03-12T10:41:52.482Z,55.29
2023-03-12T10:45:00.822Z,54.82
2023-03-12T10:48:08.246Z,55.10
2023-03-12T10:51:12.406Z,54.67
2023-03-12T10:54:29.095Z,54.55
2023-03-12T10:57:41.226Z,54.24
2023-03-12T11:00:56.987Z,53.82
2023-03-12T11:04:23.376Z,52.91
2023-03-12T11:07:35.367Z,52.32
2023-03-12T11:10:47.610Z,51.82
2023-03-12T11:14:07.215Z,51.80
2023-03-12T11:17:20.746Z,52.04
2023-03-12T11:20:32.503Z,52.20
2023-03-12T11:23:36.189Z,52.19
2023-03-12T11:26:50.953Z,52.48
2023-03-12T11:29:53.819Z,51.77
2023-03-12T11:32:57.390Z,51.73
2023-03-12T11:36:17.426Z,51.84
2023-03-12T11:39:38.158Z,51.47
2023-03-12T11:42:57.899Z,51.02
2023-03-12T11:46:14.735Z,51.16
2023-03-12T11:49:40.979Z,51.34
2023-03-12T11:53:08.176Z,51.10
2023-03-12T11:56:21.190Z,51.30
2023-03-12T11:59:28.978Z,50.67
2023-03-12T12:02:55.183Z,50.54
2023-03-12T12:06:12.603Z,50.58
2023-03-12T12:09:33.274Z,50.90
2023-03-12T12:13:17.385Z,50.88
2023-03-12T12:16:29.183Z,50.66
2023-03-12T12:19:58.729Z,50.55
2023-03-12T12:23:17.021Z,50.39
2023-03-12T12:26:40.754Z,51.01
2023-03-12T12:29:52.756Z,50.95
2023-03-12T12:33:11.257Z,50.63
2023-03-12T12:36:13.881Z,49.84
2023-03-12T12:39:39.805Z,49.89
2023-03-12T12:43:03.596Z,49.88
2023-03-12T12:46:11.558Z,49.31
2023-03-12T12:49:25.400Z,48.96
2023-03-12T12:52:28.146Z,49.58
2023-03-12T12:55:41.186Z,48.84
2023-03-12T12:58:57.830Z,49.02
2023-03-12T13:02:02.368Z,48.40
2023-03-12T13:05:21.807Z,48.27
2023-03-12T13:08:38.733Z,48.10
2023-03-12T13:11:45.551Z,48.01
2023-03-12T13:14:49.116Z,48.18
2023-03-12T13:17:50.842Z,48.36
2023-03-12T13:20:52.521Z,48.60
2023-03-12T13:24:18.236Z,48.69
2023-03-12T13:27:44.652Z,48.90
2023-03-12T13:30:50.041Z,48.98
2023-03-12T13:33:55.948Z,48.44
2023-03-12T13:37:01.349Z,48.31
2023-03-12T13:40:28.751Z,48.19
2023-03-12T13:43:39.384Z,48.31
2023-03-12T13:46:43.619Z,48.92
2023-03-12T13:50:02.884Z,48.99
2023-03-12T13:53:14.453Z,49.15
2023-03-12T13:56:19.479Z,48.83
2023-03-12T13:59:24.117Z,48.50
2023-03-12T14:02:36.367Z,48.53
2023-03-12T14:06:10.403Z,48.66
2023-03-12T14:09:14.893Z,48.27
2023-03-12T14:12:52.349Z,48.33
2023-03-12T14:15:59.546Z,48.21
2023-03-12T14:19:04.505Z,48.39
2023-03-12T14:22:10.885Z,48.43
2023-03-12T14:25:14.489Z,48.29
2023-03-12T14:28:22.120Z,48.47
2023-03-12T14:31:25.311Z,49.03
2023-03-12T14:34:32.608Z,48.66
2023-03-12T14:37:43.462Z,48.74
2023-03-12T14:40:52.273Z,48.72
2023-03-12T14:43:54.295Z,48.88
2023-03-12T14:47:00.814Z,48.40
2023-03-12T14:50:03.306Z,47.78
2023-03-12T14:53:24.237Z,47.95
2023-03-12T14:56:32.695Z,48.05
2023-03-12T14:59:37.027Z,48.28
2023-03-12T15:02:39.640Z,48.36
2023-03-12T15:05:49.197Z,48.91
2023-03-12T15:08:51.054Z,48.80
2023-03-12T15:11:58.824Z,48.79
2023-03-12T15:15:06.653Z,48.55
2023-03-12T15:18:15.578Z,48.38
2023-03-12T15:21:17.472Z,48.62
2023-03-12T15:24:19.598Z,48.72
2023-03-12T15:27:24.129Z,48.73
2023-03-12T15:30:26.946Z,49.01
2023-03-12T15:33:28.652Z,48.92
2023-03-12T15:36:32.813Z,48.82
2023-03-12T15:39:37.299Z,48.88
2023-03-12T15:42:42.992Z,48.99
2023-03-12T15:45:45.426Z,48.93
2023-03-12T15:48:50.736Z,48.92
2023-03-12T15:52:06.825Z,49.21
2023-03-12T15:55:14.398Z,49.27
2023-03-12T15:58:27.886Z,49.24
2023-03-12T16:01:29.726Z,49.67
2023-03-12T16:04:31.481Z,49.52
2023-03-12T16:07:33.408Z,49.93
2023-03-12T16:10:36.386Z,49.92
2023-03-12T16:13:38.387Z,49.11
2023-03-12T16:16:40.136Z,48.63
2023-03-12T16:19:41.917Z,48.20
2023-03-12T16:22:43.946Z,47.76
2023-03-12T16:25:49.774Z,47.46
2023-03-12T16:28:51.483Z,47.48
2023-03-12T16:31:55.282Z,47.56
2023-03-12T16:34:57.111Z,47.64
2023-03-12T16:38:02.672Z,47.73
2023-03-12T16:41:04.515Z,47.66
2023-03-12T16:44:08.547Z,47.63
2023-03-12T16:47:13.533Z,47.66
2023-03-12T16:50:20.470Z,47.96
2023-03-12T16:53:22.728Z,48.06
2023-03-12T16:56:26.068Z,48.19
2023-03-12T16:59:31.127Z,48.34
2023-03-12T17:02:34.522Z,48.84
2023-03-12T17:05:36.256Z,48.79
2023-03-12T17:08:37.975Z,48.83
2023-03-12T17:11:40.299Z,49.05
2023-03-12T17:14:41.895Z,49.24
2023-03-12T17:17:43.866Z,49.47
2023-03-12T17:20:48.034Z,49.52
2023-03-12T17:23:50.447Z,49.61
2023-03-12T17:26:52.760Z,49.75
2023-03-12T17:29:54.332Z,50.07
2023-03-12T17:33:08.610Z,50.16
2023-03-12T17:36:10.842Z,50.10
2023-03-12T17:39:12.799Z,50.13
2023-03-12T17:42:15.013Z,50.12
2023-03-12T17:45:16.813Z,50.49
2023-03-12T17:48:22.778Z,50.39
2023-03-12T17:51:25.171Z,50.33
2023-03-12T17:54:26.899Z,50.29
2023-03-12T17:57:29.180Z,50.39
2023-03-12T18:00:31.060Z,50.28
2023-03-12T18:03:35.315Z,50.42
2023-03-12T18:06:38.318Z,50.28
2023-03-12T18:09:40.122Z,50.31
2023-03-12T18:12:42.028Z,50.51
2023-03-12T18:15:51.100Z,50.47
2023-03-12T18:18:53.137Z,50.37
2023-03-12T18:21:54.853Z,50.24
2023-03-12T18:24:56.547Z,50.15
2023-03-12T18:27:58.315Z,50.17
2023-03-12T18:31:00.203Z,50.09
2023-03-12T18:34:02.028Z,50.15
2023-03-12T18:37:03.807Z,50.12
2023-03-12T18:40:07.041Z,50.09
2023-03-12T18:43:08.819Z,50.02
2023-03-12T18:46:12.306Z,49.96
2023-03-12T18:49:13.999Z,50.10
2023-03-12T18:52:15.721Z,50.11
2023-03-12T18:55:17.711Z,50.07
2023-03-12T18:58:19.767Z,50.13
2023-03-12T19:01:21.784Z,50.25
2023-03-12T19:04:25.075Z,50.36
2023-03-12T19:07:26.988Z,50.36
2023-03-12T19:10:28.772Z,50.32
2023-03-12T19:13:30.607Z,50.44
2023-03-12T19:16:32.354Z,50.38
2023-03-12T19:19:34.452Z,50.18
2023-03-12T19:22:36.161Z,50.28
2023-03-12T19:25:37.951Z,50.21
2023-03-12T19:28:40.682Z,50.08
2023-03-12T19:31:42.741Z,50.04
2023-03-12T19:34:48.890Z,50.09
2023-03-12T19:37:51.950Z,50.18
2023-03-12T19:40:56.317Z,50.08
2023-03-12T19:43:58.075Z,50.10
2023-03-12T19:47:01.558Z,49.88
2023-03-12T19:50:03.601Z,50.00
2023-03-12T19:53:05.821Z,49.89
2023-03-12T19:56:07.684Z,49.89
2023-03-12T19:59:09.464Z,50.16
2023-03-12T20:02:14.941Z,50.15
2023-03-12T20:05:16.934Z,49.88
2023-03-12T20:08:20.267Z,49.98
2023-03-12T20:11:22.233Z,49.68
2023-03-12T20:14:24.402Z,49.56
2023-03-12T20:17:26.125Z,49.53
2023-03-12T20:20:28.200Z,49.56
2023-03-12T20:23:30.648Z,49.58
2023-03-12T20:26:32.372Z,49.47
2023-03-12T20:29:34.233Z,49.39
2023-03-12T20:32:36.075Z,49.39
2023-03-12T20:35:37.951Z,49.51
2023-03-12T20:38:40.352Z,49.51
2023-03-12T20:41:41.936Z,49.40
2023-03-12T20:44:43.671Z,49.65
2023-03-12T20:47:45.516Z,49.38
2023-03-12T20:50:50.507Z,49.18
2023-03-12T20:53:52.181Z,49.12
2023-03-12T20:56:53.965Z,49.23
2023-03-12T20:59:55.777Z,49.25
2023-03-12T21:02:57.614Z,49.12
2023-03-12T21:06:01.644Z,49.06
2023-03-12T21:09:03.416Z,49.18
2023-03-12T21:12:05.271Z,49.16
2023-03-12T21:15:09.188Z,49.21
2023-03-12T21:18:11.485Z,49.05
2023-03-12T21:21:13.468Z,49.00
2023-03-12T21:24:15.237Z,49.13
2023-03-12T21:27:16.922Z,49.20
2023-03-12T21:30:18.866Z,49.06
2023-03-12T21:33:21.189Z,49.17
2023-03-12T21:36:24.495Z,49.10
2023-03-12T21:39:26.538Z,48.93
2023-03-12T21:42:28.541Z,49.16
2023-03-12T21:45:30.976Z,49.23
2023-03-12T21:48:33.222Z,49.18
2023-03-12T21:51:34.861Z,49.39
2023-03-12T21:54:36.777Z,49.54
2023-03-12T21:57:38.534Z,49.45
2023-03-12T22:00:40.236Z,49.32
2023-03-12T22:03:44.064Z,49.45
2023-03-12T22:06:45.912Z,49.44
2023-03-12T22:09:47.595Z,49.43
2023-03-12T22:12:49.280Z,49.44
2023-03-12T22:15:55.946Z,49.69
2023-03-12T22:18:58.190Z,49.72
2023-03-12T22:22:00.001Z,49.81
2023-03-12T22:25:01.822Z,49.92
2023-03-12T22:28:03.747Z,49.92
2023-03-12T22:31:07.709Z,49.94
2023-03-12T22:34:09.512Z,50.21
2023-03-12T22:37:11.236Z,50.21
2023-03-12T22:40:13.355Z,50.31
2023-03-12T22:43:15.693Z,50.49
2023-03-12T22:46:18.188Z,50.54
2023-03-12T22:49:19.830Z,50.62
2023-03-12T22:52:21.526Z,50.63
2023-03-12T22:55:23.497Z,50.87
2023-03-12T22:58:25.939Z,51.04
2023-03-12T23:01:27.694Z,51.17
2023-03-12T23:04:29.491Z,51.31
2023-03-12T23:07:31.636Z,51.45
2023-03-12T23:10:33.345Z,51.67
2023-03-12T23:13:37.771Z,51.84
2023-03-12T23:16:39.528Z,52.06
2023-03-12T23:19:44.120Z,52.28
2023-03-12T23:22:45.811Z,52.44
2023-03-12T23:25:57.927Z,52.68
2023-03-12T23:29:00.358Z,52.78
2023-03-12T23:32:02.303Z,53.07
2023-03-12T23:35:04.474Z,53.36
2023-03-12T23:38:06.297Z,53.59
2023-03-12T23:41:18.253Z,53.81
2023-03-12T23:44:19.998Z,54.26
2023-03-12T23:47:21.978Z,54.38
2023-03-12T23:50:23.774Z,54.89
2023-03-12T23:53:25.489Z,55.17
2023-03-12T23:56:32.994Z,55.45
2023-03-12T23:59:34.705Z,55.58
